createdAt,value
2023-04-18T00:01:23.736Z,99370.97
2023-04-18T00:03:51.028Z,99373.84
2023-04-18T00:06:18.000Z,99369.91
2023-04-18T00:08:44.663Z,99369.06
2023-04-18T00:11:11.220Z,99377.03
2023-04-18T00:13:39.390Z,99375.47
2023-04-18T00:16:07.762Z,99373.53
2023-04-18T00:18:34.582Z,99374.34
2023-04-18T00:21:01.994Z,99379.09
2023-04-18T00:23:30.202Z,99373.84
2023-04-18T00:25:56.771Z,99368.19
2023-04-18T00:28:23.342Z,99378.47
2023-04-18T00:30:49.952Z,99373.34
2023-04-18T00:33:16.927Z,99382.03
2023-04-18T00:35:43.485Z,99372.84
2023-04-18T00:38:10.473Z,99369.34
2023-04-18T00:40:37.868Z,99380.81
2023-04-18T00:43:04.498Z,99375.59
2023-04-18T00:45:31.245Z,99375.25
2023-04-18T00:47:57.877Z,99372.09
2023-04-18T00:50:24.870Z,99371.88
2023-04-18T00:52:52.139Z,99375.72
2023-04-18T00:55:18.957Z,99376.50
2023-04-18T00:57:45.992Z,99372.09
2023-04-18T01:00:13.209Z,99382.41
2023-04-18T01:02:40.623Z,99378.03
2023-04-18T01:05:08.073Z,99379.66
2023-04-18T01:07:37.445Z,99384.75
2023-04-18T01:10:04.393Z,99380.75
2023-04-18T01:12:31.387Z,99380.81
2023-04-18T01:14:58.844Z,99378.34
2023-04-18T01:17:25.407Z,99381.41
2023-04-18T01:19:51.921Z,99378.22
2023-04-18T01:22:19.991Z,99380.84
2023-04-18T01:24:46.523Z,99369.44
2023-04-18T01:27:13.888Z,99378.94
2023-04-18T01:29:41.062Z,99380.97
2023-04-18T01:32:07.720Z,99370.38
2023-04-18T01:34:34.417Z,99373.00
2023-04-18T01:37:00.960Z,99371.06
2023-04-18T01:39:28.562Z,99376.19
2023-04-18T01:41:55.188Z,99369.53
2023-04-18T01:44:21.737Z,99375.03
2023-04-18T01:46:48.337Z,99374.66
2023-04-18T01:49:14.916Z,99365.53
2023-04-18T01:51:42.166Z,99376.47
2023-04-18T01:54:08.681Z,99379.09
2023-04-18T01:56:35.241Z,99376.22
2023-04-18T01:59:01.937Z,99376.66
2023-04-18T02:01:28.522Z,99372.75
2023-04-18T02:03:55.453Z,99375.13
2023-04-18T02:06:22.169Z,99373.16
2023-04-18T02:08:48.768Z,99376.34
2023-04-18T02:11:15.336Z,99377.50
2023-04-18T02:13:41.876Z,99377.50
2023-04-18T02:16:12.985Z,99364.97
2023-04-18T02:18:40.162Z,99375.41
2023-04-18T02:21:07.247Z,99375.34
2023-04-18T02:23:33.754Z,99369.09
2023-04-18T02:26:00.317Z,99360.41
2023-04-18T02:28:26.819Z,99364.34
2023-04-18T02:30:53.410Z,99360.41
2023-04-18T02:33:19.958Z,99358.03
2023-04-18T02:35:46.483Z,99357.94
2023-04-18T02:38:13.852Z,99355.28
2023-04-18T02:40:40.415Z,99359.25
2023-04-18T02:43:07.053Z,99357.31
2023-04-18T02:45:33.659Z,99357.22
2023-04-18T02:48:00.302Z,99359.59
2023-04-18T02:50:27.208Z,99359.56
2023-04-18T02:52:53.795Z,99363.03
2023-04-18T02:55:21.955Z,99349.25
2023-04-18T02:57:48.517Z,99347.66
2023-04-18T03:00:15.279Z,99353.09
2023-04-18T03:02:42.094Z,99347.22
2023-04-18T03:05:08.985Z,99347.22
2023-04-18T03:07:35.766Z,99362.94
2023-04-18T03:10:02.429Z,99346.00
2023-04-18T03:12:28.966Z,99352.97
2023-04-18T03:14:55.503Z,99347.81
2023-04-18T03:17:22.360Z,99345.06
2023-04-18T03:19:49.023Z,99348.19
2023-04-18T03:22:16.112Z,99351.28
2023-04-18T03:24:42.743Z,99341.78
2023-04-18T03:27:09.306Z,99349.72
2023-04-18T03:29:35.923Z,99354.41
2023-04-18T03:32:02.626Z,99368.59
2023-04-18T03:34:29.715Z,99349.75
2023-04-18T03:36:56.664Z,99356.06
2023-04-18T03:39:23.228Z,99354.63
2023-04-18T03:41:49.883Z,99357.09
2023-04-18T03:44:16.655Z,99357.81
2023-04-18T03:46:43.385Z,99360.13
2023-04-18T03:49:09.991Z,99359.41
2023-04-18T03:51:43.461Z,99365.34
2023-04-18T03:54:10.187Z,99364.19
2023-04-18T03:56:36.879Z,99369.06
2023-04-18T03:59:03.448Z,99377.06
2023-04-18T04:01:30.096Z,99372.44
2023-04-18T04:03:56.734Z,99378.53
2023-04-18T04:06:24.117Z,99375.34
2023-04-18T04:08:50.644Z,99382.44
2023-04-18T04:11:17.589Z,99389.69
2023-04-18T04:13:44.158Z,99392.97
2023-04-18T04:16:10.813Z,99385.84
2023-04-18T04:18:37.447Z,99398.81
2023-04-18T04:21:05.333Z,99404.56
2023-04-18T04:23:33.132Z,99392.66
2023-04-18T04:26:03.712Z,99394.41
2023-04-18T04:28:31.615Z,99397.28
2023-04-18T04:30:58.318Z,99404.03
2023-04-18T04:33:28.529Z,99408.19
2023-04-18T04:35:55.658Z,99406.88
2023-04-18T04:38:25.024Z,99407.38
2023-04-18T04:40:51.601Z,99409.41
2023-04-18T04:43:20.523Z,99410.63
2023-04-18T04:45:52.653Z,99403.22
2023-04-18T04:48:20.318Z,99410.84
2023-04-18T04:50:55.433Z,99424.56
2023-04-18T04:53:22.976Z,99418.31
2023-04-18T04:55:49.775Z,99418.44
2023-04-18T04:58:16.352Z,99426.81
2023-04-18T05:00:43.035Z,99421.22
2023-04-18T05:03:10.786Z,99421.16
2023-04-18T05:05:37.593Z,99426.28
2023-04-18T05:08:04.560Z,99424.34
2023-04-18T05:10:31.311Z,99424.50
2023-04-18T05:12:57.979Z,99431.97
2023-04-18T05:15:25.096Z,99432.31
2023-04-18T05:17:51.719Z,99433.63
2023-04-18T05:20:18.310Z,99429.25
2023-04-18T05:22:44.934Z,99437.81
2023-04-18T05:25:12.549Z,99436.25
2023-04-18T05:27:39.484Z,99439.56
2023-04-18T05:30:06.996Z,99435.72
2023-04-18T05:32:33.685Z,99437.91
2023-04-18T05:35:00.391Z,99435.88
2023-04-18T05:37:27.023Z,99436.50
2023-04-18T05:39:53.585Z,99431.81
2023-04-18T05:42:20.135Z,99435.78
2023-04-18T05:44:46.679Z,99436.34
2023-04-18T05:47:13.284Z,99431.28
2023-04-18T05:49:39.846Z,99433.28
2023-04-18T05:52:06.411Z,99433.13
2023-04-18T05:54:32.966Z,99438.63
2023-04-18T05:57:00.907Z,99442.16
2023-04-18T05:59:28.830Z,99442.50
2023-04-18T06:01:55.514Z,99443.31
2023-04-18T06:04:22.193Z,99452.06
2023-04-18T06:06:48.798Z,99453.59
2023-04-18T06:09:15.327Z,99454.44
2023-04-18T06:11:41.851Z,99448.81
2023-04-18T06:14:08.384Z,99453.47
2023-04-18T06:16:37.221Z,99442.56
2023-04-18T06:19:05.220Z,99454.41
2023-04-18T06:21:32.169Z,99449.06
2023-04-18T06:23:58.980Z,99459.78
2023-04-18T06:26:25.567Z,99453.34
2023-04-18T06:28:52.313Z,99459.16
2023-04-18T06:31:19.054Z,99456.81
2023-04-18T06:33:45.671Z,99457.53
2023-04-18T06:36:12.248Z,99459.72
2023-04-18T06:38:38.753Z,99455.13
2023-04-18T06:41:05.267Z,99476.47
2023-04-18T06:43:31.812Z,99471.28
2023-04-18T06:45:59.201Z,99469.28
2023-04-18T06:48:25.867Z,99473.25
2023-04-18T06:50:52.458Z,99476.50
2023-04-18T06:53:19.016Z,99474.94
2023-04-18T06:55:45.817Z,99480.00
2023-04-18T06:58:16.094Z,99483.94
2023-04-18T07:00:43.373Z,99480.38
2023-04-18T07:03:13.407Z,99487.84
2023-04-18T07:05:40.775Z,99473.75
2023-04-18T07:08:08.041Z,99487.19
2023-04-18T07:10:34.662Z,99486.97
2023-04-18T07:13:01.236Z,99491.19
2023-04-18T07:15:27.871Z,99485.28
2023-04-18T07:17:54.502Z,99487.38
2023-04-18T07:20:21.155Z,99491.75
2023-04-18T07:22:48.540Z,99483.47
2023-04-18T07:25:15.060Z,99479.84
2023-04-18T07:27:41.717Z,99484.25
2023-04-18T07:30:09.056Z,99481.47
2023-04-18T07:32:35.834Z,99488.81
2023-04-18T07:35:04.165Z,99494.66
2023-04-18T07:37:31.308Z,99493.69
2023-04-18T07:39:57.826Z,99502.25
2023-04-18T07:42:24.366Z,99496.66
2023-04-18T07:44:51.046Z,99496.06
2023-04-18T07:47:22.255Z,99498.78
2023-04-18T07:49:49.117Z,99496.81
2023-04-18T07:52:15.855Z,99499.38
2023-04-18T07:54:42.436Z,99496.50
2023-04-18T07:57:08.991Z,99502.13
2023-04-18T07:59:36.023Z,99507.94
2023-04-18T08:02:02.903Z,99502.78
2023-04-18T08:04:30.491Z,99508.78
2023-04-18T08:06:57.267Z,99504.78
2023-04-18T08:09:24.913Z,99510.81
2023-04-18T08:11:51.472Z,99512.34
2023-04-18T08:14:17.979Z,99511.72
2023-04-18T08:16:44.661Z,99517.06
2023-04-18T08:19:11.486Z,99514.59
2023-04-18T08:21:39.303Z,99516.06
2023-04-18T08:24:06.177Z,99515.59
2023-04-18T08:26:32.717Z,99518.59
2023-04-18T08:28:59.294Z,99520.84
2023-04-18T08:31:25.928Z,99519.00
2023-04-18T08:33:52.562Z,99519.94
2023-04-18T08:36:19.186Z,99521.66
2023-04-18T08:38:46.722Z,99519.81
2023-04-18T08:41:14.824Z,99515.44
2023-04-18T08:43:41.473Z,99524.50
2023-04-18T08:46:09.136Z,99523.44
2023-04-18T08:48:36.788Z,99520.13
2023-04-18T08:51:04.934Z,99521.84
2023-04-18T08:53:33.911Z,99528.91
2023-04-18T08:56:01.574Z,99527.09
2023-04-18T08:58:28.225Z,99525.56
2023-04-18T09:00:55.355Z,99528.69
2023-04-18T09:03:42.134Z,99524.25
2023-04-18T09:06:09.647Z,99519.75
2023-04-18T09:08:36.212Z,99512.88
2023-04-18T09:11:26.156Z,99507.38
2023-04-18T09:13:53.415Z,99519.00
2023-04-18T09:16:22.438Z,99528.28
2023-04-18T09:19:13.150Z,99521.59
2023-04-18T09:21:41.539Z,99529.72
2023-04-18T09:24:24.151Z,99516.00
2023-04-18T09:26:53.761Z,99526.50
2023-04-18T09:29:23.822Z,99542.47
2023-04-18T09:32:00.102Z,99525.53
2023-04-18T09:34:28.198Z,99523.25
2023-04-18T09:37:11.833Z,99529.28
2023-04-18T09:39:39.973Z,99540.50
2023-04-18T09:42:07.951Z,99523.56
2023-04-18T09:44:34.604Z,99520.19
2023-04-18T09:47:01.197Z,99517.22
2023-04-18T09:49:28.354Z,99528.69
2023-04-18T09:51:56.231Z,99515.94
2023-04-18T09:54:25.020Z,99522.63
2023-04-18T09:56:54.152Z,99533.88
2023-04-18T09:59:42.771Z,99528.59
2023-04-18T10:02:16.373Z,99530.22
2023-04-18T10:04:44.105Z,99541.22
2023-04-18T10:07:11.408Z,99531.41
2023-04-18T10:09:42.630Z,99528.16
2023-04-18T10:12:09.544Z,99530.94
2023-04-18T10:14:38.936Z,99531.53
2023-04-18T10:17:06.382Z,99533.25
2023-04-18T10:19:32.998Z,99530.66
2023-04-18T10:22:01.048Z,99536.94
2023-04-18T10:24:49.551Z,99551.84
2023-04-18T10:27:17.751Z,99542.88
2023-04-18T10:29:48.993Z,99545.78
2023-04-18T10:32:19.983Z,99538.97
2023-04-18T10:34:47.300Z,99527.13
2023-04-18T10:37:14.282Z,99543.22
2023-04-18T10:40:05.638Z,99538.78
2023-04-18T10:42:47.464Z,99539.66
2023-04-18T10:45:22.106Z,99544.50
2023-04-18T10:47:49.002Z,99537.66
2023-04-18T10:50:17.372Z,99542.88
2023-04-18T10:52:44.874Z,99535.38
2023-04-18T10:55:39.767Z,99536.88
2023-04-18T10:58:06.476Z,99537.88
2023-04-18T11:00:33.261Z,99529.53
2023-04-18T11:03:00.637Z,99537.34
2023-04-18T11:05:29.092Z,99542.28
2023-04-18T11:07:55.748Z,99534.44
2023-04-18T11:10:27.150Z,99534.50
2023-04-18T11:12:55.010Z,99533.28
2023-04-18T11:15:23.152Z,99540.19
2023-04-18T11:18:01.022Z,99543.09
2023-04-18T11:20:29.358Z,99544.16
2023-04-18T11:22:58.704Z,99537.94
2023-04-18T11:25:40.586Z,99528.38
2023-04-18T11:28:07.245Z,99538.44
2023-04-18T11:30:41.124Z,99533.47
2023-04-18T11:33:11.882Z,99538.25
2023-04-18T11:35:39.709Z,99546.38
2023-04-18T11:38:07.556Z,99540.03
2023-04-18T11:40:35.716Z,99551.09
2023-04-18T11:43:03.775Z,99546.41
2023-04-18T11:45:30.681Z,99541.03
2023-04-18T11:47:58.682Z,99548.03
2023-04-18T11:50:26.338Z,99550.66
2023-04-18T11:52:54.369Z,99545.56
2023-04-18T11:55:24.894Z,99543.97
2023-04-18T11:57:53.632Z,99546.41
2023-04-18T12:00:30.839Z,99552.69
2023-04-18T12:02:59.156Z,99547.25
2023-04-18T12:05:33.912Z,99547.63
2023-04-18T12:08:11.413Z,99558.03
2023-04-18T12:10:38.884Z,99552.38
2023-04-18T12:13:09.012Z,99548.97
2023-04-18T12:15:39.297Z,99543.09
2023-04-18T12:18:08.474Z,99552.28
2023-04-18T12:20:50.428Z,99551.88
2023-04-18T12:23:34.321Z,99556.19
2023-04-18T12:26:08.520Z,99549.94
2023-04-18T12:28:35.749Z,99546.22
2023-04-18T12:31:05.435Z,99550.97
2023-04-18T12:33:31.980Z,99550.16
2023-04-18T12:35:59.156Z,99555.31
2023-04-18T12:38:25.693Z,99558.31
2023-04-18T12:40:52.579Z,99543.19
2023-04-18T12:43:19.712Z,99560.34
2023-04-18T12:45:46.937Z,99554.78
2023-04-18T12:48:14.000Z,99551.66
2023-04-18T12:50:40.861Z,99556.44
2023-04-18T12:53:07.619Z,99550.25
2023-04-18T12:55:34.588Z,99555.03
2023-04-18T12:58:01.157Z,99552.63
2023-04-18T13:00:30.423Z,99555.56
2023-04-18T13:02:58.024Z,99570.34
2023-04-18T13:05:28.573Z,99554.84
2023-04-18T13:08:08.512Z,99554.91
2023-04-18T13:10:42.398Z,99550.66
2023-04-18T13:13:08.939Z,99554.59
2023-04-18T13:15:36.270Z,99558.09
2023-04-18T13:18:06.220Z,99559.25
2023-04-18T13:20:34.051Z,99553.78
2023-04-18T13:23:02.626Z,99553.44
2023-04-18T13:25:29.305Z,99550.66
2023-04-18T13:27:57.488Z,99561.81
2023-04-18T13:30:24.112Z,99558.91
2023-04-18T13:32:50.864Z,99541.09
2023-04-18T13:35:17.562Z,99551.75
2023-04-18T13:37:44.131Z,99549.13
2023-04-18T13:40:11.255Z,99543.91
2023-04-18T13:42:39.305Z,99539.09
2023-04-18T13:45:06.352Z,99550.50
2023-04-18T13:47:32.936Z,99547.63
2023-04-18T13:49:59.668Z,99548.47
2023-04-18T13:52:26.341Z,99542.19
2023-04-18T13:54:53.137Z,99551.13
2023-04-18T13:57:19.898Z,99547.63
2023-04-18T13:59:46.855Z,99552.34
2023-04-18T14:02:13.712Z,99556.25
2023-04-18T14:04:40.985Z,99551.81
2023-04-18T14:07:07.993Z,99557.72
2023-04-18T14:09:34.799Z,99565.63
2023-04-18T14:12:02.106Z,99562.09
2023-04-18T14:14:28.744Z,99560.22
2023-04-18T14:16:55.319Z,99561.00
2023-04-18T14:19:21.908Z,99563.41
2023-04-18T14:21:48.570Z,99568.66
2023-04-18T14:24:15.155Z,99568.97
2023-04-18T14:26:41.809Z,99568.78
2023-04-18T14:29:08.537Z,99565.75
2023-04-18T14:31:35.327Z,99571.84
2023-04-18T14:34:02.067Z,99568.72
2023-04-18T14:36:28.672Z,99566.50
2023-04-18T14:38:55.349Z,99562.59
2023-04-18T14:41:21.957Z,99568.13
2023-04-18T14:43:48.728Z,99559.84
2023-04-18T14:46:19.017Z,99560.16
2023-04-18T14:48:49.018Z,99574.34
2023-04-18T14:51:16.572Z,99578.25
2023-04-18T14:53:44.383Z,99559.25
2023-04-18T14:56:11.218Z,99562.28
2023-04-18T14:58:37.878Z,99566.47
2023-04-18T15:01:05.624Z,99566.16
2023-04-18T15:03:32.710Z,99563.84
2023-04-18T15:05:59.732Z,99560.59
2023-04-18T15:08:26.346Z,99567.69
2023-04-18T15:10:52.895Z,99566.31
2023-04-18T15:13:20.826Z,99557.03
2023-04-18T15:15:55.083Z,99570.66
2023-04-18T15:18:21.788Z,99559.75
2023-04-18T15:20:48.519Z,99570.66
2023-04-18T15:23:15.190Z,99557.44
2023-04-18T15:25:42.669Z,99562.63
2023-04-18T15:28:09.337Z,99566.34
2023-04-18T15:30:36.347Z,99560.78
2023-04-18T15:33:03.005Z,99557.72
2023-04-18T15:35:29.601Z,99567.34
2023-04-18T15:37:57.460Z,99572.94
2023-04-18T15:40:24.424Z,99565.44
2023-04-18T15:42:53.534Z,99567.72
2023-04-18T15:45:20.960Z,99575.41
2023-04-18T15:47:47.620Z,99561.66
2023-04-18T15:50:16.014Z,99562.88
2023-04-18T15:52:42.734Z,99570.44
2023-04-18T15:55:11.854Z,99566.06
2023-04-18T15:57:38.559Z,99557.53
2023-04-18T16:00:11.697Z,99560.47
2023-04-18T16:02:38.366Z,99583.41
2023-04-18T16:05:05.446Z,99562.06
2023-04-18T16:07:32.040Z,99557.34
2023-04-18T16:09:58.553Z,99560.00
2023-04-18T16:12:25.220Z,99561.13
2023-04-18T16:14:51.790Z,99560.28
2023-04-18T16:17:18.324Z,99552.25
2023-04-18T16:19:44.914Z,99559.69
2023-04-18T16:22:12.431Z,99552.88
2023-04-18T16:24:40.865Z,99548.84
2023-04-18T16:27:08.617Z,99561.34
2023-04-18T16:29:35.438Z,99557.31
2023-04-18T16:32:02.029Z,99553.66
2023-04-18T16:34:28.593Z,99550.78
2023-04-18T16:36:55.731Z,99554.66
2023-04-18T16:39:22.344Z,99550.66
2023-04-18T16:41:48.937Z,99548.19
2023-04-18T16:44:15.816Z,99545.81
2023-04-18T16:46:42.900Z,99545.72
2023-04-18T16:49:09.506Z,99549.19
2023-04-18T16:51:37.380Z,99554.28
2023-04-18T16:54:05.010Z,99549.47
2023-04-18T16:56:31.805Z,99539.94
2023-04-18T16:58:58.758Z,99541.00
2023-04-18T17:01:25.596Z,99546.88
2023-04-18T17:03:52.316Z,99547.19
2023-04-18T17:06:19.458Z,99536.06
2023-04-18T17:08:46.192Z,99545.00
2023-04-18T17:11:12.729Z,99537.03
2023-04-18T17:13:39.295Z,99541.69
2023-04-18T17:16:07.413Z,99546.69
2023-04-18T17:18:34.007Z,99549.34
2023-04-18T17:21:00.635Z,99541.38
2023-04-18T17:23:27.217Z,99547.16
2023-04-18T17:25:53.820Z,99560.09
2023-04-18T17:28:21.292Z,99552.53
2023-04-18T17:30:47.855Z,99548.91
2023-04-18T17:33:14.450Z,99551.16
2023-04-18T17:35:41.628Z,99555.41
2023-04-18T17:38:10.493Z,99560.06
2023-04-18T17:40:37.261Z,99558.72
2023-04-18T17:43:03.797Z,99563.00
2023-04-18T17:45:30.466Z,99555.09
2023-04-18T17:47:58.292Z,99556.25
2023-04-18T17:50:25.128Z,99565.31
2023-04-18T17:52:51.672Z,99569.22
2023-04-18T17:55:18.464Z,99564.50
2023-04-18T17:57:45.294Z,99568.88
2023-04-18T18:00:13.709Z,99566.56
2023-04-18T18:02:42.826Z,99566.56
2023-04-18T18:05:13.853Z,99556.34
2023-04-18T18:07:43.142Z,99566.56
2023-04-18T18:10:10.846Z,99577.22
2023-04-18T18:12:38.184Z,99568.16
2023-04-18T18:15:05.382Z,99577.56
2023-04-18T18:17:31.985Z,99587.00
2023-04-18T18:19:58.568Z,99581.47
2023-04-18T18:22:26.146Z,99583.09
2023-04-18T18:24:52.849Z,99578.72
2023-04-18T18:27:20.387Z,99583.09
2023-04-18T18:29:48.062Z,99587.00
2023-04-18T18:32:14.684Z,99590.19
2023-04-18T18:34:41.357Z,99596.50
2023-04-18T18:37:07.998Z,99604.03
2023-04-18T18:39:34.787Z,99586.00
2023-04-18T18:42:02.459Z,99590.38
2023-04-18T18:44:29.062Z,99587.25
2023-04-18T18:46:56.714Z,99601.09
2023-04-18T18:49:23.424Z,99593.63
2023-04-18T18:51:50.058Z,99590.53
2023-04-18T18:54:16.654Z,99595.31
2023-04-18T18:56:44.256Z,99594.09
2023-04-18T18:59:11.317Z,99593.56
2023-04-18T19:01:39.058Z,99599.06
2023-04-18T19:04:05.801Z,99599.41
2023-04-18T19:06:33.894Z,99608.47
2023-04-18T19:09:00.927Z,99612.84
2023-04-18T19:11:28.921Z,99602.97
2023-04-18T19:13:56.717Z,99608.03
2023-04-18T19:16:23.356Z,99606.09
2023-04-18T19:18:50.741Z,99604.91
2023-04-18T19:21:17.804Z,99606.97
2023-04-18T19:23:44.468Z,99607.31
2023-04-18T19:26:11.046Z,99600.22
2023-04-18T19:28:37.671Z,99599.06
2023-04-18T19:31:04.504Z,99593.56
2023-04-18T19:33:33.461Z,99598.63
2023-04-18T19:36:00.064Z,99591.88
2023-04-18T19:38:29.013Z,99590.09
2023-04-18T19:40:56.651Z,99601.03
2023-04-18T19:43:23.236Z,99592.59
2023-04-18T19:45:50.927Z,99596.72
2023-04-18T19:48:18.818Z,99606.75
2023-04-18T19:50:46.217Z,99600.81
2023-04-18T19:53:12.854Z,99603.13
2023-04-18T19:55:39.705Z,99597.13
2023-04-18T19:58:06.337Z,99607.00
2023-04-18T20:00:34.312Z,99605.41
2023-04-18T20:03:01.208Z,99601.50
2023-04-18T20:05:27.958Z,99600.38
2023-04-18T20:07:54.591Z,99594.50
2023-04-18T20:10:22.372Z,99594.94
2023-04-18T20:12:50.048Z,99598.06
2023-04-18T20:15:16.978Z,99599.19
2023-04-18T20:17:43.858Z,99596.88
2023-04-18T20:20:11.477Z,99607.56
2023-04-18T20:22:40.300Z,99609.50
2023-04-18T20:25:07.190Z,99613.84
2023-04-18T20:27:33.782Z,99620.50
2023-04-18T20:30:00.409Z,99616.16
2023-04-18T20:32:27.260Z,99609.13
2023-04-18T20:34:53.955Z,99619.00
2023-04-18T20:37:20.669Z,99613.94
2023-04-18T20:39:47.637Z,99621.84
2023-04-18T20:42:14.358Z,99616.69
2023-04-18T20:44:43.226Z,99620.25
2023-04-18T20:47:09.868Z,99630.13
2023-04-18T20:49:36.513Z,99616.78
2023-04-18T20:52:03.159Z,99617.22
2023-04-18T20:54:29.763Z,99616.41
2023-04-18T20:56:56.283Z,99623.88
2023-04-18T20:59:22.816Z,99628.25
2023-04-18T21:01:49.402Z,99614.91
2023-04-18T21:04:16.543Z,99610.91
2023-04-18T21:06:43.373Z,99613.31
2023-04-18T21:09:09.957Z,99613.31
2023-04-18T21:11:36.512Z,99609.78
2023-04-18T21:14:06.075Z,99617.94
2023-04-18T21:16:32.867Z,99617.94
2023-04-18T21:18:59.482Z,99619.16
2023-04-18T21:21:26.021Z,99627.25
2023-04-18T21:23:52.589Z,99623.06
2023-04-18T21:26:19.165Z,99625.47
2023-04-18T21:29:12.098Z,99624.78
2023-04-18T21:31:38.703Z,99627.97
2023-04-18T21:34:05.587Z,99627.53
2023-04-18T21:36:32.428Z,99631.53
2023-04-18T21:39:01.042Z,99625.53
2023-04-18T21:41:27.705Z,99636.56
2023-04-18T21:43:54.396Z,99627.88
2023-04-18T21:46:21.269Z,99641.56
2023-04-18T21:48:48.499Z,99644.31
2023-04-18T21:51:16.793Z,99638.00
2023-04-18T21:53:43.531Z,99633.22
2023-04-18T21:56:10.987Z,99633.84
2023-04-18T21:58:37.633Z,99638.38
2023-04-18T22:01:04.190Z,99639.78
2023-04-18T22:03:31.669Z,99640.03
2023-04-18T22:05:58.940Z,99643.44
2023-04-18T22:08:26.273Z,99643.31
2023-04-18T22:10:57.813Z,99639.25
2023-04-18T22:13:25.988Z,99635.59
2023-04-18T22:15:52.551Z,99639.75
2023-04-18T22:18:19.320Z,99636.44
2023-04-18T22:20:47.039Z,99637.41
2023-04-18T22:23:14.157Z,99637.22
2023-04-18T22:25:40.964Z,99634.28
2023-04-18T22:28:07.976Z,99637.97
2023-04-18T22:30:34.949Z,99642.47
2023-04-18T22:33:01.685Z,99643.06
2023-04-18T22:35:28.423Z,99639.31
2023-04-18T22:37:55.786Z,99633.25
2023-04-18T22:40:22.655Z,99634.75
2023-04-18T22:42:51.849Z,99633.16
2023-04-18T22:45:19.496Z,99624.91
2023-04-18T22:47:46.741Z,99629.25
2023-04-18T22:50:13.999Z,99628.56
2023-04-18T22:52:40.857Z,99619.97
2023-04-18T22:55:08.169Z,99617.09
2023-04-18T22:57:34.783Z,99615.06
2023-04-18T23:00:01.414Z,99615.06
2023-04-18T23:02:28.212Z,99614.16
2023-04-18T23:04:58.347Z,99606.97
2023-04-18T23:07:25.050Z,99601.38
2023-04-18T23:09:51.588Z,99601.72
2023-04-18T23:12:18.147Z,99596.66
2023-04-18T23:14:44.714Z,99600.66
2023-04-18T23:17:11.284Z,99595.97
2023-04-18T23:19:38.709Z,99594.03
2023-04-18T23:22:05.515Z,99596.41
2023-04-18T23:24:32.133Z,99594.59
2023-04-18T23:26:58.700Z,99595.34
2023-04-18T23:29:25.396Z,99591.84
2023-04-18T23:31:51.923Z,99600.06
2023-04-18T23:34:18.508Z,99585.38
2023-04-18T23:36:45.239Z,99578.16
2023-04-18T23:39:11.868Z,99584.03
2023-04-18T23:41:38.419Z,99575.09
2023-04-18T23:44:05.725Z,99580.78
2023-04-18T23:46:33.358Z,99577.41
2023-04-18T23:49:00.907Z,99570.59
2023-04-18T23:51:28.005Z,99572.63
2023-04-18T23:53:54.651Z,99572.16
2023-04-18T23:56:21.827Z,99573.69
2023-04-18T23:58:48.402Z,99573.88
